Time;durP1;ratioP1;P1;durP2;ratioP2;P2;SDS_P1;SDS_P2;PMS_P1;PMS_P2;Temp;Humidity;BMP_temperature;BMP_pressure;BME280_temperature;BME280_humidity;BME280_pressure;Samples;Min_cycle;Max_cycle;Signal;HPM_P1;HPM_P2
2021/06/20 00:00:45;;;;;;;;;;;24.80;76.40;;;;;;4361935;32;20039;-74
2021/06/20 00:03:15;;;;;;;;;;;24.80;76.40;;;;;;4362087;32;20005;-74
2021/06/20 00:05:53;;;;;;;;;;;24.70;76.60;;;;;;4349235;32;20064;-74
2021/06/20 00:08:26;;;;;;;;;;;24.80;76.90;;;;;;4361839;32;20023;-73
2021/06/20 00:10:59;;;;;;;;;;;24.70;76.90;;;;;;4362124;32;20064;-74
2021/06/20 00:13:32;;;;;;;;;;;24.60;77.00;;;;;;4349072;32;20997;-74
2021/06/20 00:15:59;;;;;;;;;;;24.50;77.40;;;;;;4349551;32;20005;-75
2021/06/20 00:18:29;;;;;;;;;;;24.50;77.50;;;;;;4361350;32;20086;-74
2021/06/20 00:20:57;;;;;;;;;;;24.50;77.60;;;;;;4349484;32;20011;-74
2021/06/20 00:23:29;;;;;;;;;;;24.50;77.80;;;;;;4349107;32;20003;-74
2021/06/20 00:26:02;;;;;;;;;;;24.50;77.80;;;;;;4361674;32;20000;-74
2021/06/20 00:28:33;;;;;;;;;;;24.40;77.70;;;;;;4349314;32;20027;-74
2021/06/20 00:31:01;;;;;;;;;;;24.40;77.80;;;;;;4361125;32;20007;-73
2021/06/20 00:33:37;;;;;;;;;;;24.40;77.80;;;;;;4361153;32;20083;-74
2021/06/20 00:36:05;;;;;;;;;;;24.40;77.90;;;;;;4349209;32;20036;-74
2021/06/20 00:38:38;;;;;;;;;;;24.40;77.70;;;;;;4348901;32;20040;-74
2021/06/20 00:41:10;;;;;;;;;;;24.40;77.80;;;;;;4361196;32;20072;-74
2021/06/20 00:43:40;;;;;;;;;;;24.30;77.80;;;;;;4361641;32;20023;-74
2021/06/20 00:46:10;;;;;;;;;;;24.30;77.80;;;;;;4349105;32;20006;-74
2021/06/20 00:48:43;;;;;;;;;;;24.20;77.80;;;;;;4349016;32;20005;-75
2021/06/20 00:51:10;;;;;;;;;;;24.30;77.90;;;;;;4361340;32;20005;-74
2021/06/20 00:53:43;;;;;;;;;;;24.30;77.90;;;;;;4361102;32;20023;-73
2021/06/20 00:56:13;;;;;;;;;;;24.20;77.80;;;;;;4348740;32;20024;-73
2021/06/20 00:58:46;;;;;;;;;;;24.20;77.80;;;;;;4349013;32;20057;-73
2021/06/20 01:01:19;;;;;;;;;;;24.20;78.00;;;;;;4348426;32;20404;-74
2021/06/20 01:03:55;;;;;;;;;;;24.10;78.10;;;;;;4348985;32;20107;-74
2021/06/20 01:06:28;;;;;;;;;;;24.10;78.30;;;;;;4361239;32;20524;-74
2021/06/20 01:09:01;;;;;;;;;;;24.00;78.40;;;;;;4348495;32;20005;-74
2021/06/20 01:11:34;;;;;;;;;;;24.00;78.40;;;;;;4348729;32;19997;-73
2021/06/20 01:14:09;;;;;;;;;;;24.00;78.40;;;;;;4360841;32;20059;-73
2021/06/20 01:16:41;;;;;;;;;;;24.00;78.50;;;;;;4348847;32;20004;-74
2021/06/20 01:19:17;;;;;;;;;;;24.00;78.50;;;;;;4360747;32;20048;-73
2021/06/20 01:21:50;;;;;;;;;;;23.90;78.50;;;;;;4360950;32;20001;-74
2021/06/20 01:24:21;;;;;;;;;;;23.90;78.70;;;;;;4347926;32;20001;-74
2021/06/20 01:26:54;;;;;;;;;;;23.80;78.90;;;;;;4348571;32;20008;-74
2021/06/20 01:29:32;;;;;;;;;;;23.80;79.10;;;;;;4359634;32;24376;-73
2021/06/20 01:32:02;;;;;;;;;;;23.70;79.30;;;;;;4348384;32;20008;-73
2021/06/20 01:34:38;;;;;;;;;;;23.60;79.50;;;;;;4348032;32;20013;-74
2021/06/20 01:37:10;;;;;;;;;;;23.60;79.70;;;;;;4361752;32;20004;-73
2021/06/20 01:39:41;;;;;;;;;;;23.60;79.90;;;;;;4360712;32;20041;-74
2021/06/20 01:42:13;;;;;;;;;;;23.50;80.10;;;;;;4360243;32;20377;-75
2021/06/20 01:44:51;;;;;;;;;;;23.50;80.20;;;;;;4359371;32;44034;-73
2021/06/20 01:47:24;;;;;;;;;;;23.40;80.40;;;;;;4348245;32;20431;-73
2021/06/20 01:49:52;;;;;;;;;;;23.40;80.60;;;;;;4348143;32;20004;-73
2021/06/20 01:52:24;;;;;;;;;;;23.30;80.70;;;;;;4348285;32;20323;-75
2021/06/20 01:54:56;;;;;;;;;;;23.30;80.90;;;;;;4360077;32;20033;-73
2021/06/20 01:57:27;;;;;;;;;;;23.30;81.00;;;;;;4347799;32;20075;-75
2021/06/20 01:59:56;;;;;;;;;;;23.20;81.10;;;;;;4346520;32;41820;-73
2021/06/20 02:02:29;;;;;;;;;;;23.20;81.30;;;;;;4348234;32;20015;-74
2021/06/20 02:05:01;;;;;;;;;;;23.10;81.30;;;;;;4358944;32;36000;-74
2021/06/20 02:07:29;;;;;;;;;;;23.10;81.40;;;;;;4360201;32;20005;-73
2021/06/20 02:10:02;;;;;;;;;;;23.10;81.50;;;;;;4360210;32;20060;-72
2021/06/20 02:12:34;;;;;;;;;;;23.10;81.60;;;;;;4348120;33;20043;-73
2021/06/20 02:15:07;;;;;;;;;;;23.00;81.50;;;;;;4359170;33;27548;-74
2021/06/20 02:17:38;;;;;;;;;;;23.00;81.70;;;;;;4359071;33;32080;-74
2021/06/20 02:20:09;;;;;;;;;;;23.00;81.70;;;;;;4347823;33;20031;-75
2021/06/20 02:22:43;;;;;;;;;;;23.00;81.70;;;;;;4348023;33;20035;-74
2021/06/20 02:25:13;;;;;;;;;;;23.00;81.70;;;;;;4360397;33;20076;-75
2021/06/20 02:27:42;;;;;;;;;;;23.00;81.50;;;;;;4359889;33;20013;-74
2021/06/20 02:30:13;;;;;;;;;;;23.00;81.60;;;;;;4360121;33;20012;-74
2021/06/20 02:32:44;;;;;;;;;;;23.00;81.70;;;;;;4360442;33;20012;-74
2021/06/20 02:35:15;;;;;;;;;;;23.00;81.70;;;;;;4347224;33;29256;-74
2021/06/20 02:37:45;;;;;;;;;;;22.90;81.60;;;;;;4359327;33;29728;-75
2021/06/20 02:40:18;;;;;;;;;;;22.90;81.60;;;;;;4347166;33;20443;-76
2021/06/20 02:42:48;;;;;;;;;;;22.90;81.60;;;;;;4351204;32;20322;-78
2021/06/20 02:45:20;;;;;;;;;;;22.90;81.70;;;;;;4349434;32;40351;-77
2021/06/20 02:47:51;;;;;;;;;;;22.80;81.80;;;;;;4362615;32;21234;-76
2021/06/20 02:50:19;;;;;;;;;;;22.80;81.80;;;;;;4350055;32;20463;-76
2021/06/20 02:52:53;;;;;;;;;;;22.80;81.90;;;;;;4363271;32;20040;-77
2021/06/20 02:55:21;;;;;;;;;;;22.70;81.90;;;;;;4362985;32;20027;-77
2021/06/20 02:57:49;;;;;;;;;;;22.70;82.00;;;;;;4350076;32;20418;-78
2021/06/20 03:00:20;;;;;;;;;;;22.70;82.00;;;;;;4362547;32;20009;-77
2021/06/20 03:02:47;;;;;;;;;;;22.70;82.00;;;;;;4362048;32;20043;-77
2021/06/20 03:05:23;;;;;;;;;;;22.60;82.10;;;;;;4350735;32;20112;-77
2021/06/20 03:07:50;;;;;;;;;;;22.60;82.20;;;;;;4362863;32;20000;-77
2021/06/20 03:10:20;;;;;;;;;;;22.60;82.30;;;;;;4361622;32;31094;-77
2021/06/20 03:12:50;;;;;;;;;;;22.60;82.40;;;;;;4349994;32;20053;-77
2021/06/20 03:15:20;;;;;;;;;;;22.50;82.20;;;;;;4362168;32;20004;-77
2021/06/20 03:17:54;;;;;;;;;;;22.50;82.30;;;;;;4362655;32;20045;-78
2021/06/20 03:20:27;;;;;;;;;;;22.50;82.40;;;;;;4362699;32;20035;-77
2021/06/20 03:22:57;;;;;;;;;;;22.50;82.50;;;;;;4349318;32;29451;-77
2021/06/20 03:25:27;;;;;;;;;;;22.40;82.40;;;;;;4361591;32;27979;-77
2021/06/20 03:27:58;;;;;;;;;;;22.40;82.60;;;;;;4362644;32;20151;-77
2021/06/20 03:30:28;;;;;;;;;;;22.40;82.60;;;;;;4349709;32;20056;-77
2021/06/20 03:32:55;;;;;;;;;;;22.30;82.60;;;;;;4361096;32;31661;-77
2021/06/20 03:35:40;;;;;;;;;;;22.30;82.60;;;;;;4350024;32;20032;-77
2021/06/20 03:38:08;;;;;;;;;;;22.30;82.60;;;;;;4348845;32;35621;-79
2021/06/20 03:40:35;;;;;;;;;;;22.30;82.70;;;;;;4348777;32;27053;-75
2021/06/20 03:43:08;;;;;;;;;;;22.30;82.70;;;;;;4361810;32;20009;-77
2021/06/20 03:45:41;;;;;;;;;;;22.30;82.70;;;;;;4349995;32;19997;-77
2021/06/20 03:48:12;;;;;;;;;;;22.20;82.80;;;;;;4362085;32;20027;-77
2021/06/20 03:50:42;;;;;;;;;;;22.20;82.90;;;;;;4348746;32;39058;-77
2021/06/20 03:53:12;;;;;;;;;;;22.20;82.90;;;;;;4361158;32;20067;-77
2021/06/20 03:55:42;;;;;;;;;;;22.20;82.80;;;;;;4361493;32;20096;-77
2021/06/20 03:58:13;;;;;;;;;;;22.20;82.80;;;;;;4349888;32;20030;-77
2021/06/20 04:00:43;;;;;;;;;;;22.20;82.80;;;;;;4361782;32;20394;-78
2021/06/20 04:03:17;;;;;;;;;;;22.10;82.70;;;;;;4361696;32;20017;-77
2021/06/20 04:05:47;;;;;;;;;;;22.10;82.80;;;;;;4361941;32;20019;-77
2021/06/20 04:08:16;;;;;;;;;;;22.10;82.80;;;;;;4361983;32;20004;-77
2021/06/20 04:10:46;;;;;;;;;;;22.10;82.90;;;;;;4348745;32;32511;-77
2021/06/20 04:13:19;;;;;;;;;;;22.00;82.90;;;;;;4360975;32;23000;-77
2021/06/20 04:15:51;;;;;;;;;;;22.00;82.90;;;;;;4349351;32;19989;-77
2021/06/20 04:18:21;;;;;;;;;;;22.00;83.10;;;;;;4349040;32;20005;-78
2021/06/20 04:20:54;;;;;;;;;;;22.00;83.10;;;;;;4361827;32;20049;-77
2021/06/20 04:23:24;;;;;;;;;;;22.00;83.20;;;;;;4361438;32;20009;-78
2021/06/20 04:25:57;;;;;;;;;;;21.90;83.30;;;;;;4349417;32;19997;-77
2021/06/20 04:28:27;;;;;;;;;;;21.80;83.40;;;;;;4349527;32;20043;-77
2021/06/20 04:30:57;;;;;;;;;;;21.80;83.60;;;;;;4361569;32;20009;-77
2021/06/20 04:33:28;;;;;;;;;;;21.80;83.60;;;;;;4361136;32;20035;-78
2021/06/20 04:35:57;;;;;;;;;;;21.80;83.80;;;;;;4361719;32;20122;-77
2021/06/20 04:38:33;;;;;;;;;;;21.70;83.70;;;;;;4349402;32;20398;-78
2021/06/20 04:41:06;;;;;;;;;;;21.70;83.60;;;;;;4360902;32;24779;-79
2021/06/20 04:46:15;;;;;;;;;;;21.80;83.80;;;;;;4360961;32;20056;-77
2021/06/20 04:48:48;;;;;;;;;;;21.70;83.70;;;;;;4361609;32;20023;-77
2021/06/20 04:51:22;;;;;;;;;;;21.70;83.70;;;;;;4361359;32;20093;-77
2021/06/20 04:53:52;;;;;;;;;;;21.80;83.80;;;;;;4349233;32;20053;-77
2021/06/20 04:56:25;;;;;;;;;;;21.70;83.70;;;;;;4362221;32;20004;-77
2021/06/20 04:58:56;;;;;;;;;;;21.70;83.70;;;;;;4361378;32;20073;-78
2021/06/20 05:01:26;;;;;;;;;;;21.70;83.70;;;;;;4348525;32;20406;-79
2021/06/20 05:04:00;;;;;;;;;;;21.70;83.80;;;;;;4361469;32;20458;-79
2021/06/20 05:06:30;;;;;;;;;;;21.70;83.80;;;;;;4360712;32;20015;-78
2021/06/20 05:08:57;;;;;;;;;;;21.70;83.70;;;;;;4347011;32;39788;-78
2021/06/20 05:11:27;;;;;;;;;;;21.70;83.70;;;;;;4348349;32;20039;-78
2021/06/20 05:13:55;;;;;;;;;;;21.70;83.80;;;;;;4347240;32;37369;-78
2021/06/20 05:16:25;;;;;;;;;;;21.70;83.80;;;;;;4359794;32;29275;-80
2021/06/20 05:18:55;;;;;;;;;;;21.70;83.90;;;;;;4347922;32;20008;-77
2021/06/20 05:21:33;;;;;;;;;;;21.70;84.00;;;;;;4360529;32;20005;-78
2021/06/20 05:24:03;;;;;;;;;;;21.70;83.90;;;;;;4361892;32;20394;-77
2021/06/20 05:26:34;;;;;;;;;;;21.70;83.80;;;;;;4347711;32;28353;-79
2021/06/20 05:29:01;;;;;;;;;;;21.70;84.60;;;;;;4359927;32;33995;-77
2021/06/20 05:31:29;;;;;;;;;;;21.70;83.70;;;;;;4359386;32;33572;-78
2021/06/20 05:34:01;;;;;;;;;;;21.70;83.70;;;;;;4360800;32;20072;-77
2021/06/20 05:36:32;;;;;;;;;;;21.70;83.70;;;;;;4360773;32;20020;-78
2021/06/20 05:39:02;;;;;;;;;;;21.70;83.60;;;;;;4360703;32;20061;-77
2021/06/20 05:41:30;;;;;;;;;;;21.70;83.40;;;;;;4360675;32;20019;-78
2021/06/20 05:43:57;;;;;;;;;;;21.70;83.50;;;;;;4360007;32;20092;-79
2021/06/20 05:46:25;;;;;;;;;;;21.70;83.40;;;;;;4346995;32;29136;-78
2021/06/20 05:48:58;;;;;;;;;;;21.70;83.30;;;;;;4359970;32;20025;-77
2021/06/20 05:51:28;;;;;;;;;;;21.70;83.40;;;;;;4360656;32;20091;-77
2021/06/20 05:53:55;;;;;;;;;;;21.70;83.30;;;;;;4360103;32;20022;-77
2021/06/20 05:56:30;;;;;;;;;;;21.70;83.30;;;;;;4361175;32;20005;-77
2021/06/20 05:59:00;;;;;;;;;;;21.70;83.30;;;;;;4359881;32;20035;-77
2021/06/20 06:01:27;;;;;;;;;;;21.70;83.30;;;;;;4358946;32;43484;-77
2021/06/20 06:03:54;;;;;;;;;;;21.60;83.10;;;;;;4359246;32;35498;-78
2021/06/20 06:06:21;;;;;;;;;;;21.60;83.10;;;;;;4360565;32;32090;-78
2021/06/20 06:08:49;;;;;;;;;;;21.60;83.10;;;;;;4360463;32;20059;-78
2021/06/20 06:11:16;;;;;;;;;;;21.60;83.00;;;;;;4359649;32;24701;-77
2021/06/20 06:13:46;;;;;;;;;;;21.60;83.10;;;;;;4360547;32;37916;-79
2021/06/20 06:16:13;;;;;;;;;;;21.60;82.90;;;;;;4358885;32;37504;-78
2021/06/20 06:18:43;;;;;;;;;;;21.60;82.80;;;;;;4347538;33;20052;-77
2021/06/20 06:21:10;;;;;;;;;;;21.60;82.60;;;;;;4358996;33;44469;-79
2021/06/20 06:23:43;;;;;;;;;;;21.60;82.60;;;;;;4359392;33;40243;-78
2021/06/20 06:26:17;;;;;;;;;;;21.50;82.60;;;;;;4346537;33;44203;-79
2021/06/20 06:28:49;;;;;;;;;;;21.50;82.70;;;;;;4360445;33;20323;-78
2021/06/20 06:31:19;;;;;;;;;;;21.50;82.70;;;;;;4359591;33;30050;-79
2021/06/20 06:33:50;;;;;;;;;;;21.60;82.60;;;;;;4347924;33;20048;-80
2021/06/20 06:36:18;;;;;;;;;;;21.60;82.50;;;;;;4348042;33;20009;-78
2021/06/20 06:38:51;;;;;;;;;;;21.60;82.50;;;;;;4358920;33;26650;-78
2021/06/20 06:41:21;;;;;;;;;;;21.50;82.40;;;;;;4359474;33;28752;-77
2021/06/20 06:43:49;;;;;;;;;;;21.50;82.30;;;;;;4346254;33;47042;-78
2021/06/20 06:46:21;;;;;;;;;;;21.60;82.10;;;;;;4360269;33;35237;-78
2021/06/20 06:48:51;;;;;;;;;;;21.50;82.00;;;;;;4359928;33;20353;-78
2021/06/20 06:51:22;;;;;;;;;;;21.50;81.80;;;;;;4347410;33;20011;-80
2021/06/20 06:53:51;;;;;;;;;;;21.50;82.00;;;;;;4360179;33;20398;-77
2021/06/20 06:56:22;;;;;;;;;;;21.50;82.00;;;;;;4346745;33;24067;-78
2021/06/20 06:58:49;;;;;;;;;;;21.60;81.80;;;;;;4359326;33;43470;-77
2021/06/20 07:01:18;;;;;;;;;;;21.60;81.70;;;;;;4359602;33;20581;-77
2021/06/20 07:03:51;;;;;;;;;;;21.60;81.70;;;;;;4358891;33;45231;-77
2021/06/20 07:06:33;;;;;;;;;;;21.60;81.70;;;;;;4359895;33;20044;-78
2021/06/20 07:09:06;;;;;;;;;;;21.50;81.80;;;;;;4358325;33;41194;-79
2021/06/20 07:11:36;;;;;;;;;;;21.60;81.70;;;;;;4358772;33;45580;-79
2021/06/20 07:14:03;;;;;;;;;;;21.60;81.50;;;;;;4359648;33;20001;-79
2021/06/20 07:16:33;;;;;;;;;;;21.60;81.50;;;;;;4360335;33;30114;-76
2021/06/20 07:19:03;;;;;;;;;;;21.70;81.50;;;;;;4358444;33;44500;-80
2021/06/20 07:21:30;;;;;;;;;;;21.60;81.10;;;;;;4359100;33;26079;-77
2021/06/20 07:24:00;;;;;;;;;;;21.60;81.10;;;;;;4359508;33;20020;-77
2021/06/20 07:26:30;;;;;;;;;;;21.60;81.10;;;;;;4359746;33;43328;-79
2021/06/20 07:28:58;;;;;;;;;;;21.60;81.00;;;;;;4359965;32;38906;-79
2021/06/20 07:31:28;;;;;;;;;;;21.60;80.60;;;;;;4361838;32;26632;-79
2021/06/20 07:33:58;;;;;;;;;;;21.60;80.70;;;;;;4362262;32;45681;-80
2021/06/20 07:36:27;;;;;;;;;;;21.60;80.60;;;;;;4362219;32;44602;-77
2021/06/20 07:38:54;;;;;;;;;;;21.60;80.50;;;;;;4360930;32;37745;-78
2021/06/20 07:41:22;;;;;;;;;;;21.60;80.80;;;;;;4362775;32;20422;-78
2021/06/20 07:43:50;;;;;;;;;;;21.60;80.70;;;;;;4349861;32;20406;-79
2021/06/20 07:46:20;;;;;;;;;;;21.60;80.60;;;;;;4348718;32;42877;-79
2021/06/20 07:48:52;;;;;;;;;;;21.60;80.50;;;;;;4362323;32;20457;-78
2021/06/20 07:51:20;;;;;;;;;;;21.60;80.40;;;;;;4362628;32;29256;-78
2021/06/20 07:53:50;;;;;;;;;;;21.60;80.60;;;;;;4362012;32;43557;-80
2021/06/20 07:56:20;;;;;;;;;;;21.60;80.50;;;;;;4360570;32;39760;-77
2021/06/20 07:58:50;;;;;;;;;;;21.60;80.50;;;;;;4360730;32;45535;-79
2021/06/20 08:01:17;;;;;;;;;;;21.70;80.40;;;;;;4348594;32;37443;-80
2021/06/20 08:03:48;;;;;;;;;;;21.70;80.30;;;;;;4348878;32;29553;-80
2021/06/20 08:06:15;;;;;;;;;;;21.70;80.20;;;;;;4361934;32;32517;-81
2021/06/20 08:08:45;;;;;;;;;;;21.70;80.30;;;;;;4362656;32;20038;-80
2021/06/20 08:11:17;;;;;;;;;;;21.70;80.20;;;;;;4361116;32;39563;-79
2021/06/20 08:13:44;;;;;;;;;;;21.70;80.20;;;;;;4361008;32;32733;-80
2021/06/20 08:16:11;;;;;;;;;;;21.80;80.10;;;;;;4362245;32;25888;-79
2021/06/20 08:18:41;;;;;;;;;;;21.80;80.00;;;;;;4360286;32;39119;-78
2021/06/20 08:21:08;;;;;;;;;;;21.80;80.00;;;;;;4362058;32;39444;-79
2021/06/20 08:23:35;;;;;;;;;;;21.70;80.00;;;;;;4361022;32;34709;-80
2021/06/20 08:26:05;;;;;;;;;;;21.80;80.00;;;;;;4361521;32;20023;-78
2021/06/20 08:28:32;;;;;;;;;;;21.80;79.90;;;;;;4347700;32;47063;-81
2021/06/20 08:31:00;;;;;;;;;;;21.70;79.90;;;;;;4361278;32;20005;-79
2021/06/20 08:33:27;;;;;;;;;;;21.80;79.70;;;;;;4361068;32;44693;-79
2021/06/20 08:35:55;;;;;;;;;;;21.80;79.70;;;;;;4361450;32;20001;-80
2021/06/20 08:38:27;;;;;;;;;;;21.80;79.70;;;;;;4360047;32;44677;-80
2021/06/20 08:40:55;;;;;;;;;;;21.80;79.60;;;;;;4347817;32;34705;-79
2021/06/20 08:43:25;;;;;;;;;;;21.80;79.40;;;;;;4360298;32;42548;-78
2021/06/20 08:45:56;;;;;;;;;;;21.80;79.30;;;;;;4359838;32;40812;-80
2021/06/20 08:48:26;;;;;;;;;;;21.80;79.20;;;;;;4349350;32;20005;-79
2021/06/20 08:50:53;;;;;;;;;;;21.90;79.30;;;;;;4359968;32;32357;-80
2021/06/20 08:53:21;;;;;;;;;;;21.90;79.30;;;;;;4348740;32;19997;-80
2021/06/20 08:55:49;;;;;;;;;;;21.90;79.40;;;;;;4361294;32;39302;-81
2021/06/20 08:58:18;;;;;;;;;;;21.90;79.40;;;;;;4360463;32;23757;-78
2021/06/20 09:00:46;;;;;;;;;;;21.90;79.30;;;;;;4361180;32;39065;-80
2021/06/20 09:03:13;;;;;;;;;;;22.00;79.20;;;;;;4360000;32;44945;-79
2021/06/20 09:05:54;;;;;;;;;;;21.90;79.20;;;;;;4359960;32;39924;-81
2021/06/20 09:08:25;;;;;;;;;;;22.00;79.10;;;;;;4347385;32;45365;-79
2021/06/20 09:10:52;;;;;;;;;;;21.90;79.10;;;;;;4361410;32;20008;-79
2021/06/20 09:13:20;;;;;;;;;;;21.90;79.10;;;;;;4360594;32;20005;-80
2021/06/20 09:15:59;;;;;;;;;;;21.90;79.00;;;;;;4362247;32;20060;-80
2021/06/20 09:18:26;;;;;;;;;;;22.00;79.10;;;;;;4361304;32;29854;-81
2021/06/20 09:20:54;;;;;;;;;;;22.00;79.20;;;;;;4359185;32;42358;-80
2021/06/20 09:23:21;;;;;;;;;;;22.00;79.30;;;;;;4360535;32;20021;-80
2021/06/20 09:25:55;;;;;;;;;;;22.00;79.20;;;;;;4360512;32;20023;-79
2021/06/20 09:28:33;;;;;;;;;;;22.00;79.10;;;;;;4348445;32;20001;-79
2021/06/20 09:31:01;;;;;;;;;;;22.00;79.10;;;;;;4361734;32;20019;-79
2021/06/20 09:33:33;;;;;;;;;;;22.00;79.00;;;;;;4347609;32;20064;-78
2021/06/20 09:36:01;;;;;;;;;;;22.00;79.10;;;;;;4361406;32;20448;-79
2021/06/20 09:38:32;;;;;;;;;;;22.00;78.90;;;;;;4361859;32;20495;-80
2021/06/20 09:41:13;;;;;;;;;;;22.00;78.90;;;;;;4347933;32;20012;-80
2021/06/20 09:43:51;;;;;;;;;;;22.00;78.80;;;;;;4360879;32;29896;-79
2021/06/20 09:46:18;;;;;;;;;;;22.10;78.80;;;;;;4360708;32;32508;-80
2021/06/20 09:48:46;;;;;;;;;;;22.10;78.80;;;;;;4359605;32;30833;-79
2021/06/20 09:51:26;;;;;;;;;;;22.10;78.70;;;;;;4358516;32;45336;-80
2021/06/20 09:53:53;;;;;;;;;;;22.10;78.60;;;;;;4360432;32;43378;-80
2021/06/20 09:56:25;;;;;;;;;;;22.10;78.70;;;;;;4360318;32;43968;-80
2021/06/20 09:59:09;;;;;;;;;;;22.10;78.60;;;;;;4360810;32;32232;-79
2021/06/20 10:01:42;;;;;;;;;;;22.00;78.60;;;;;;4359628;32;31992;-80
2021/06/20 10:04:09;;;;;;;;;;;22.10;78.50;;;;;;4359812;32;33417;-80
2021/06/20 10:06:36;;;;;;;;;;;22.10;78.60;;;;;;4359970;32;19996;-80
2021/06/20 10:09:05;;;;;;;;;;;22.10;78.60;;;;;;4361130;32;20016;-81
2021/06/20 10:11:35;;;;;;;;;;;22.10;78.50;;;;;;4358671;32;45917;-80
2021/06/20 10:14:08;;;;;;;;;;;22.10;78.50;;;;;;4359863;32;20416;-80
2021/06/20 10:16:38;;;;;;;;;;;22.10;78.40;;;;;;4360301;32;34504;-80
2021/06/20 10:19:16;;;;;;;;;;;22.10;78.50;;;;;;4358903;33;43151;-81
2021/06/20 10:21:45;;;;;;;;;;;22.20;78.60;;;;;;4359024;33;43485;-80
2021/06/20 10:24:13;;;;;;;;;;;22.20;78.60;;;;;;4361248;33;20410;-82
2021/06/20 10:26:42;;;;;;;;;;;22.20;78.60;;;;;;4360081;33;20012;-80
2021/06/20 10:29:38;;;;;;;;;;;22.20;78.60;;;;;;4359634;33;20393;-80
2021/06/20 10:32:19;;;;;;;;;;;22.20;78.60;;;;;;4349462;33;31536;-80
2021/06/20 10:35:03;;;;;;;;;;;22.20;78.40;;;;;;4358760;33;43361;-82
2021/06/20 10:37:34;;;;;;;;;;;22.30;78.40;;;;;;4360214;33;43371;-82
2021/06/20 10:40:03;;;;;;;;;;;22.20;78.20;;;;;;4358511;33;44612;-80
2021/06/20 10:42:37;;;;;;;;;;;22.20;78.20;;;;;;4359084;33;39429;-80
2021/06/20 10:45:05;;;;;;;;;;;22.20;78.10;;;;;;4360163;32;42453;-81
2021/06/20 10:47:33;;;;;;;;;;;22.20;78.20;;;;;;4358736;33;43000;-81
2021/06/20 10:50:03;;;;;;;;;;;22.30;78.30;;;;;;4360496;33;20020;-81
2021/06/20 10:52:33;;;;;;;;;;;22.30;78.20;;;;;;4361133;32;20431;-80
2021/06/20 10:55:09;;;;;;;;;;;22.20;78.70;;;;;;4359778;33;20015;-80
2021/06/20 10:57:45;;;;;;;;;;;22.30;77.80;;;;;;4360214;33;20412;-80
2021/06/20 11:00:32;;;;;;;;;;;22.30;77.70;;;;;;4360519;32;20027;-80
2021/06/20 11:03:13;;;;;;;;;;;22.30;77.60;;;;;;4361184;32;44327;-79
2021/06/20 11:05:44;;;;;;;;;;;22.30;77.60;;;;;;4362168;32;26846;-80
2021/06/20 11:08:12;;;;;;;;;;;22.30;77.50;;;;;;4362306;32;39651;-80
2021/06/20 11:10:39;;;;;;;;;;;22.30;77.50;;;;;;4363047;32;41851;-80
2021/06/20 11:13:06;;;;;;;;;;;22.30;77.50;;;;;;4361451;32;41562;-81
2021/06/20 11:15:33;;;;;;;;;;;22.30;77.50;;;;;;4363409;32;20031;-81
2021/06/20 11:18:04;;;;;;;;;;;22.40;77.50;;;;;;4362579;32;44563;-81
2021/06/20 11:20:32;;;;;;;;;;;22.40;77.30;;;;;;4361363;32;37993;-81
2021/06/20 11:22:59;;;;;;;;;;;22.40;77.40;;;;;;4361404;32;43380;-81
2021/06/20 11:25:26;;;;;;;;;;;22.50;77.60;;;;;;4362225;32;42435;-81
2021/06/20 11:27:53;;;;;;;;;;;22.50;77.40;;;;;;4360920;32;43351;-80
2021/06/20 11:30:22;;;;;;;;;;;22.50;77.20;;;;;;4360958;32;40787;-81
2021/06/20 11:32:49;;;;;;;;;;;22.60;77.30;;;;;;4362299;32;43362;-82
2021/06/20 11:35:17;;;;;;;;;;;22.60;77.20;;;;;;4362482;32;44714;-82
2021/06/20 11:37:47;;;;;;;;;;;22.60;77.10;;;;;;4361773;32;38095;-82
2021/06/20 11:40:19;;;;;;;;;;;22.60;77.10;;;;;;4362985;32;20413;-81
2021/06/20 11:42:47;;;;;;;;;;;22.70;77.10;;;;;;4361038;32;43305;-82
2021/06/20 11:45:16;;;;;;;;;;;22.70;76.90;;;;;;4362234;32;41847;-82
2021/06/20 11:47:46;;;;;;;;;;;22.70;76.70;;;;;;4362913;32;20017;-81
2021/06/20 11:50:13;;;;;;;;;;;22.80;76.80;;;;;;4360656;32;43548;-83
2021/06/20 11:52:42;;;;;;;;;;;22.80;76.80;;;;;;4362162;32;44567;-82
2021/06/20 11:55:13;;;;;;;;;;;22.80;76.80;;;;;;4360424;32;47098;-84
2021/06/20 11:57:41;;;;;;;;;;;22.80;76.50;;;;;;4362116;32;44208;-82
2021/06/20 12:00:13;;;;;;;;;;;22.80;77.20;;;;;;4360870;32;31139;-82
2021/06/20 12:02:40;;;;;;;;;;;22.90;76.50;;;;;;4361764;32;43631;-83
2021/06/20 12:05:11;;;;;;;;;;;22.90;76.40;;;;;;4348345;32;45070;-83
2021/06/20 12:07:38;;;;;;;;;;;23.00;76.30;;;;;;4362026;32;43806;-81
2021/06/20 12:10:05;;;;;;;;;;;23.00;76.10;;;;;;4361698;32;43089;-81
2021/06/20 12:12:33;;;;;;;;;;;23.00;75.90;;;;;;4361787;32;43365;-83
2021/06/20 12:15:03;;;;;;;;;;;23.00;75.80;;;;;;4361065;32;36329;-83
2021/06/20 12:17:30;;;;;;;;;;;23.00;75.80;;;;;;4360738;32;41657;-83
2021/06/20 12:19:59;;;;;;;;;;;23.00;75.60;;;;;;4361566;32;20373;-85
2021/06/20 12:22:27;;;;;;;;;;;23.00;75.80;;;;;;4361289;32;44021;-85
2021/06/20 12:24:54;;;;;;;;;;;23.00;75.70;;;;;;4360524;32;44174;-85
2021/06/20 12:27:32;;;;;;;;;;;23.00;75.40;;;;;;4361127;32;20394;-84
2021/06/20 12:30:10;;;;;;;;;;;23.00;75.60;;;;;;4362089;32;41687;-82
2021/06/20 12:32:37;;;;;;;;;;;23.10;75.70;;;;;;4360285;32;44120;-78
2021/06/20 12:35:05;;;;;;;;;;;23.10;75.70;;;;;;4361719;32;35672;-80
2021/06/20 12:37:39;;;;;;;;;;;23.10;75.60;;;;;;4359847;32;44186;-80
2021/06/20 12:40:14;;;;;;;;;;;23.20;75.60;;;;;;4360539;32;43497;-78
2021/06/20 12:42:45;;;;;;;;;;;23.20;75.50;;;;;;4361705;32;35596;-80
2021/06/20 12:45:27;;;;;;;;;;;23.30;75.30;;;;;;4361298;32;44618;-79
2021/06/20 12:47:56;;;;;;;;;;;23.20;75.20;;;;;;4359697;32;45329;-77
2021/06/20 12:50:26;;;;;;;;;;;23.30;75.30;;;;;;4361404;32;38401;-77
2021/06/20 12:52:53;;;;;;;;;;;23.30;75.20;;;;;;4361704;32;27913;-81
2021/06/20 12:55:21;;;;;;;;;;;23.30;74.80;;;;;;4360917;32;44620;-79
2021/06/20 12:57:51;;;;;;;;;;;23.40;74.80;;;;;;4360579;32;27843;-77
2021/06/20 13:00:20;;;;;;;;;;;23.40;74.80;;;;;;4359749;32;38967;-78
2021/06/20 13:03:09;;;;;;;;;;;23.40;74.70;;;;;;4358818;32;44324;-78
2021/06/20 13:05:45;;;;;;;;;;;23.40;75.50;;;;;;4361428;32;33578;-78
2021/06/20 13:08:14;;;;;;;;;;;23.40;74.50;;;;;;4360882;32;39795;-77
2021/06/20 13:10:43;;;;;;;;;;;23.40;74.70;;;;;;4360706;32;43809;-77
2021/06/20 13:13:10;;;;;;;;;;;23.50;74.80;;;;;;4360995;32;40105;-78
2021/06/20 13:15:39;;;;;;;;;;;23.50;74.60;;;;;;4360756;32;43540;-77
2021/06/20 13:18:08;;;;;;;;;;;23.50;74.40;;;;;;4361196;32;20017;-78
2021/06/20 13:20:38;;;;;;;;;;;23.50;74.50;;;;;;4360892;32;37802;-77
2021/06/20 13:23:09;;;;;;;;;;;23.50;74.50;;;;;;4360907;32;40710;-77
2021/06/20 13:25:38;;;;;;;;;;;23.60;74.40;;;;;;4359133;32;41552;-77
2021/06/20 13:28:06;;;;;;;;;;;23.60;74.30;;;;;;4359601;32;38843;-77
2021/06/20 13:30:39;;;;;;;;;;;23.60;74.40;;;;;;4359343;32;41073;-78
2021/06/20 13:33:06;;;;;;;;;;;23.60;74.30;;;;;;4360834;32;44502;-78
2021/06/20 13:35:39;;;;;;;;;;;23.60;74.20;;;;;;4359359;32;45578;-78
2021/06/20 13:38:08;;;;;;;;;;;23.60;74.10;;;;;;4359503;32;44943;-78
2021/06/20 13:40:36;;;;;;;;;;;23.60;74.00;;;;;;4361371;32;20016;-78
2021/06/20 13:43:03;;;;;;;;;;;23.60;74.00;;;;;;4360585;32;41147;-77
2021/06/20 13:45:33;;;;;;;;;;;23.60;73.90;;;;;;4360432;32;28460;-78
2021/06/20 13:48:00;;;;;;;;;;;23.60;74.00;;;;;;4360791;32;20090;-78
2021/06/20 13:50:28;;;;;;;;;;;23.70;74.00;;;;;;4347525;32;26656;-78
2021/06/20 13:52:58;;;;;;;;;;;23.70;73.80;;;;;;4346979;32;32887;-78
2021/06/20 13:55:25;;;;;;;;;;;23.70;73.80;;;;;;4359127;32;45630;-78
2021/06/20 13:57:53;;;;;;;;;;;23.70;73.80;;;;;;4361645;32;20005;-78
2021/06/20 14:00:24;;;;;;;;;;;23.70;73.80;;;;;;4360328;32;19996;-78
2021/06/20 14:03:05;;;;;;;;;;;23.80;73.70;;;;;;4357981;32;20016;-78
2021/06/20 14:05:32;;;;;;;;;;;23.80;73.70;;;;;;4360200;32;20019;-78
2021/06/20 14:08:00;;;;;;;;;;;23.80;73.60;;;;;;4360860;32;20031;-77
2021/06/20 14:10:34;;;;;;;;;;;23.80;73.40;;;;;;4361278;32;20070;-79
2021/06/20 14:13:01;;;;;;;;;;;23.80;73.50;;;;;;4357522;32;20138;-79
2021/06/20 14:15:29;;;;;;;;;;;23.80;73.40;;;;;;4361045;32;20005;-79
2021/06/20 14:17:56;;;;;;;;;;;23.90;73.40;;;;;;4359542;32;20028;-79
2021/06/20 14:20:23;;;;;;;;;;;23.90;73.20;;;;;;4360167;33;20008;-79
2021/06/20 14:22:51;;;;;;;;;;;23.90;73.20;;;;;;4359189;33;20076;-79
2021/06/20 14:25:19;;;;;;;;;;;23.90;73.20;;;;;;4347106;33;20017;-78
2021/06/20 14:27:47;;;;;;;;;;;23.90;73.10;;;;;;4360271;33;20050;-78
2021/06/20 14:30:15;;;;;;;;;;;24.00;73.20;;;;;;4360303;33;20339;-79
2021/06/20 14:32:42;;;;;;;;;;;24.00;73.00;;;;;;4359324;33;20068;-78
2021/06/20 14:35:09;;;;;;;;;;;24.00;73.00;;;;;;4358992;33;28412;-78
2021/06/20 14:37:38;;;;;;;;;;;24.10;73.10;;;;;;4361257;32;20009;-78